Star Helena — V7KJ9 — position and weather

sailwx.info

Track history (hours):
 
Tides and Currents Weather Stations Pressure Air Temp Water Temp Dewpoint Dewpoint Depression Visibility Wind Speed Wind Dir Waves Ship Positions

Star Helena

Last reported at 2016-Nov-05 04:34 UTC. Time now 2016-Dec-05 12:33 UTC.
Position N 21°05' E 110°32'.
Warning: this ship's position is 30 days out of date.

Length 229 m; draft 9.7 m.

Type: Cargo ship. MMSI: 538002630.

Date/timePositionNaut miles runAvg speedWind from/ knotsBaromVisibWave heightAir tempDewpointWater temp
2016-Nov-05 04:34N 21°05' E 110°32'15 7.3
2016-Nov-05 02:33N 21°18' E 110°25'0 0.1
2016-Nov-05 01:31N 21°18' E 110°25'0 0.0
2016-Nov-04 23:31N 21°18' E 110°25'0 0.0
2016-Nov-04 22:31N 21°18' E 110°25'0 0.1
2016-Nov-04 21:25N 21°18' E 110°25'0 0.0
2016-Nov-04 20:31N 21°18' E 110°25'0 0.0
2016-Nov-04 18:28N 21°18' E 110°25'0 0.0
2016-Nov-04 16:31N 21°18' E 110°25'0 0.0
2016-Nov-04 14:31N 21°18' E 110°25'0 0.0
2016-Nov-04 12:31N 21°18' E 110°25'0 0.0
2016-Nov-04 08:31N 21°18' E 110°25'0 0.0
2016-Nov-04 07:31N 21°18' E 110°25'0 0.0
2016-Nov-04 06:25N 21°18' E 110°25'  
2016-Nov-01 23:31N 21°18' E 110°25'0 0.0
2016-Nov-01 20:31N 21°18' E 110°25'0 0.1
2016-Nov-01 19:31N 21°18' E 110°25'0 0.0
2016-Nov-01 03:31N 21°18' E 110°25'0 0.0
2016-Nov-01 02:31N 21°18' E 110°25'0 0.0
2016-Nov-01 00:33N 21°18' E 110°25'3 3.1
2016-Oct-31 23:33N 21°15' E 110°25'9 9.0
2016-Oct-31 22:33N 21°06' E 110°27'16 0.8
2016-Oct-31 03:11N 21°01' E 110°43'13 0.5
2016-Oct-30 02:13N 21°04' E 110°30'0 0.0
2016-Oct-30 00:31N 21°04' E 110°30'0 0.0
2016-Oct-29 23:28N 21°04' E 110°30'0 0.0
2016-Oct-29 22:28N 21°04' E 110°30'0 0.0
2016-Oct-29 21:31N 21°04' E 110°30'0 0.0
2016-Oct-29 20:28N 21°04' E 110°30'0 0.0
2016-Oct-29 19:31N 21°04' E 110°30'0 0.0
2016-Oct-29 18:28N 21°04' E 110°30'0 0.0
2016-Oct-29 16:28N 21°04' E 110°30'0 0.0
2016-Oct-29 14:28N 21°04' E 110°30'0 0.0
2016-Oct-28 23:28N 21°04' E 110°30'0 0.0
2016-Oct-28 21:28N 21°04' E 110°30'0 0.0
2016-Oct-28 19:31N 21°04' E 110°30'0 0.0
2016-Oct-28 16:31N 21°04' E 110°30'0 0.0
2016-Oct-28 15:25N 21°04' E 110°30'0 0.0
2016-Oct-28 14:28N 21°04' E 110°30'0 0.0
2016-Oct-28 09:32N 21°04' E 110°30'0 0.0
2016-Oct-28 08:29N 21°04' E 110°30'0 0.0
2016-Oct-28 07:29N 21°04' E 110°30'15 2.2
2016-Oct-28 00:32N 21°02' E 110°46'  
Track history (hours):
 
Tides and Currents Weather Stations Pressure Air Temp Water Temp Dewpoint Dewpoint Depression Visibility Wind Speed Wind Dir Waves Ship Positions

Star Helena

Last reported at 2016-Nov-05 04:34 UTC. Time now 2016-Dec-05 12:33 UTC.
Position N 21°05' E 110°32'.
Warning: this ship's position is 30 days out of date.

Length 229 m; draft 9.7 m.

Type: Cargo ship. MMSI: 538002630.

Date/timePositionNaut miles runAvg speedWind from/ knotsBaromVisibWave heightAir tempDewpointWater temp
2016-Nov-05 04:34N 21°05' E 110°32'15 7.3
2016-Nov-05 02:33N 21°18' E 110°25'0 0.1
2016-Nov-05 01:31N 21°18' E 110°25'0 0.0
2016-Nov-04 23:31N 21°18' E 110°25'0 0.0
2016-Nov-04 22:31N 21°18' E 110°25'0 0.1
2016-Nov-04 21:25N 21°18' E 110°25'0 0.0
2016-Nov-04 20:31N 21°18' E 110°25'0 0.0
2016-Nov-04 18:28N 21°18' E 110°25'0 0.0
2016-Nov-04 16:31N 21°18' E 110°25'0 0.0
2016-Nov-04 14:31N 21°18' E 110°25'0 0.0
2016-Nov-04 12:31N 21°18' E 110°25'0 0.0
2016-Nov-04 08:31N 21°18' E 110°25'0 0.0
2016-Nov-04 07:31N 21°18' E 110°25'0 0.0
2016-Nov-04 06:25N 21°18' E 110°25'  
2016-Nov-01 23:31N 21°18' E 110°25'0 0.0
2016-Nov-01 20:31N 21°18' E 110°25'0 0.1
2016-Nov-01 19:31N 21°18' E 110°25'0 0.0
2016-Nov-01 03:31N 21°18' E 110°25'0 0.0
2016-Nov-01 02:31N 21°18' E 110°25'0 0.0
2016-Nov-01 00:33N 21°18' E 110°25'3 3.1
2016-Oct-31 23:33N 21°15' E 110°25'9 9.0
2016-Oct-31 22:33N 21°06' E 110°27'16 0.8
2016-Oct-31 03:11N 21°01' E 110°43'13 0.5
2016-Oct-30 02:13N 21°04' E 110°30'0 0.0
2016-Oct-30 00:31N 21°04' E 110°30'0 0.0
2016-Oct-29 23:28N 21°04' E 110°30'0 0.0
2016-Oct-29 22:28N 21°04' E 110°30'0 0.0
2016-Oct-29 21:31N 21°04' E 110°30'0 0.0
2016-Oct-29 20:28N 21°04' E 110°30'0 0.0
2016-Oct-29 19:31N 21°04' E 110°30'0 0.0
2016-Oct-29 18:28N 21°04' E 110°30'0 0.0
2016-Oct-29 16:28N 21°04' E 110°30'0 0.0
2016-Oct-29 14:28N 21°04' E 110°30'0 0.0
2016-Oct-28 23:28N 21°04' E 110°30'0 0.0
2016-Oct-28 21:28N 21°04' E 110°30'0 0.0
2016-Oct-28 19:31N 21°04' E 110°30'0 0.0
2016-Oct-28 16:31N 21°04' E 110°30'0 0.0
2016-Oct-28 15:25N 21°04' E 110°30'0 0.0
2016-Oct-28 14:28N 21°04' E 110°30'0 0.0
2016-Oct-28 09:32N 21°04' E 110°30'0 0.0
2016-Oct-28 08:29N 21°04' E 110°30'0 0.0
2016-Oct-28 07:29N 21°04' E 110°30'15 2.2
2016-Oct-28 00:32N 21°02' E 110°46'  

Dump ship's entire track history